sensor_id;sensor_type;location;lat;lon;timestamp;P1;durP1;ratioP1;P2;durP2;ratioP2
49458;SDS011;35354;51.296;16.924;2023-04-15T00:01:01;22.50;;;19.42;;
49458;SDS011;35354;51.296;16.924;2023-04-15T00:03:27;36.10;;;28.30;;
49458;SDS011;35354;51.296;16.924;2023-04-15T00:05:53;34.08;;;26.80;;
49458;SDS011;35354;51.296;16.924;2023-04-15T00:08:18;21.05;;;17.17;;
49458;SDS011;35354;51.296;16.924;2023-04-15T00:10:44;27.90;;;21.33;;
49458;SDS011;35354;51.296;16.924;2023-04-15T00:13:10;21.23;;;16.50;;
49458;SDS011;35354;51.296;16.924;2023-04-15T00:15:36;34.42;;;27.73;;
49458;SDS011;35354;51.296;16.924;2023-04-15T00:18:02;24.98;;;18.35;;
49458;SDS011;35354;51.296;16.924;2023-04-15T00:20:28;40.47;;;30.55;;
49458;SDS011;35354;51.296;16.924;2023-04-15T00:22:53;41.22;;;29.95;;
49458;SDS011;35354;51.296;16.924;2023-04-15T00:25:19;53.95;;;41.72;;
49458;SDS011;35354;51.296;16.924;2023-04-15T00:27:44;47.75;;;36.92;;
49458;SDS011;35354;51.296;16.924;2023-04-15T00:30:09;30.77;;;23.90;;
49458;SDS011;35354;51.296;16.924;2023-04-15T00:32:38;23.27;;;17.88;;
49458;SDS011;35354;51.296;16.924;2023-04-15T00:35:03;30.08;;;22.85;;
49458;SDS011;35354;51.296;16.924;2023-04-15T00:37:29;28.10;;;23.88;;
49458;SDS011;35354;51.296;16.924;2023-04-15T00:39:54;21.65;;;16.77;;
49458;SDS011;35354;51.296;16.924;2023-04-15T00:42:20;23.20;;;15.77;;
49458;SDS011;35354;51.296;16.924;2023-04-15T00:44:46;25.02;;;22.17;;
49458;SDS011;35354;51.296;16.924;2023-04-15T00:47:11;25.33;;;19.23;;
49458;SDS011;35354;51.296;16.924;2023-04-15T00:49:37;22.88;;;16.10;;
49458;SDS011;35354;51.296;16.924;2023-04-15T00:52:02;23.17;;;19.48;;
49458;SDS011;35354;51.296;16.924;2023-04-15T00:54:28;21.65;;;16.73;;
49458;SDS011;35354;51.296;16.924;2023-04-15T00:56:53;35.83;;;25.92;;
49458;SDS011;35354;51.296;16.924;2023-04-15T00:59:19;24.30;;;17.17;;
49458;SDS011;35354;51.296;16.924;2023-04-15T01:01:45;20.25;;;15.93;;
49458;SDS011;35354;51.296;16.924;2023-04-15T01:04:10;17.85;;;15.57;;
49458;SDS011;35354;51.296;16.924;2023-04-15T01:06:37;27.73;;;22.50;;
49458;SDS011;35354;51.296;16.924;2023-04-15T01:09:02;20.63;;;16.42;;
49458;SDS011;35354;51.296;16.924;2023-04-15T01:11:28;18.25;;;16.30;;
49458;SDS011;35354;51.296;16.924;2023-04-15T01:13:54;21.65;;;17.35;;
49458;SDS011;35354;51.296;16.924;2023-04-15T01:16:21;25.50;;;16.70;;
49458;SDS011;35354;51.296;16.924;2023-04-15T01:18:47;19.23;;;16.73;;
49458;SDS011;35354;51.296;16.924;2023-04-15T01:21:13;22.83;;;16.52;;
49458;SDS011;35354;51.296;16.924;2023-04-15T01:23:38;19.10;;;16.10;;
49458;SDS011;35354;51.296;16.924;2023-04-15T01:26:04;20.75;;;16.45;;
49458;SDS011;35354;51.296;16.924;2023-04-15T01:28:31;18.77;;;15.45;;
49458;SDS011;35354;51.296;16.924;2023-04-15T01:33:33;21.65;;;18.25;;
49458;SDS011;35354;51.296;16.924;2023-04-15T01:35:58;26.58;;;18.10;;
49458;SDS011;35354;51.296;16.924;2023-04-15T01:38:24;19.65;;;16.58;;
49458;SDS011;35354;51.296;16.924;2023-04-15T01:40:50;21.45;;;18.02;;
49458;SDS011;35354;51.296;16.924;2023-04-15T01:43:16;19.65;;;16.05;;
49458;SDS011;35354;51.296;16.924;2023-04-15T01:45:41;29.02;;;19.42;;
49458;SDS011;35354;51.296;16.924;2023-04-15T01:48:07;19.48;;;16.02;;
49458;SDS011;35354;51.296;16.924;2023-04-15T01:50:33;19.75;;;16.02;;
49458;SDS011;35354;51.296;16.924;2023-04-15T01:53:00;22.23;;;15.88;;
49458;SDS011;35354;51.296;16.924;2023-04-15T01:55:26;21.35;;;16.05;;
49458;SDS011;35354;51.296;16.924;2023-04-15T01:57:51;21.13;;;16.58;;
49458;SDS011;35354;51.296;16.924;2023-04-15T02:00:16;22.60;;;17.67;;
49458;SDS011;35354;51.296;16.924;2023-04-15T02:02:42;21.08;;;15.60;;
49458;SDS011;35354;51.296;16.924;2023-04-15T02:05:07;21.58;;;16.27;;
49458;SDS011;35354;51.296;16.924;2023-04-15T02:07:33;21.67;;;15.70;;
49458;SDS011;35354;51.296;16.924;2023-04-15T02:09:58;20.33;;;17.98;;
49458;SDS011;35354;51.296;16.924;2023-04-15T02:12:24;20.13;;;15.02;;
49458;SDS011;35354;51.296;16.924;2023-04-15T02:14:49;23.33;;;16.85;;
49458;SDS011;35354;51.296;16.924;2023-04-15T02:17:15;20.42;;;15.52;;
49458;SDS011;35354;51.296;16.924;2023-04-15T02:19:40;20.50;;;15.68;;
49458;SDS011;35354;51.296;16.924;2023-04-15T02:22:06;18.70;;;14.93;;
49458;SDS011;35354;51.296;16.924;2023-04-15T02:24:33;17.75;;;14.68;;
49458;SDS011;35354;51.296;16.924;2023-04-15T02:26:58;18.90;;;15.10;;
49458;SDS011;35354;51.296;16.924;2023-04-15T02:29:25;25.33;;;14.95;;
49458;SDS011;35354;51.296;16.924;2023-04-15T02:31:50;18.67;;;15.90;;
49458;SDS011;35354;51.296;16.924;2023-04-15T02:34:15;20.15;;;15.55;;
49458;SDS011;35354;51.296;16.924;2023-04-15T02:36:41;18.23;;;14.55;;
49458;SDS011;35354;51.296;16.924;2023-04-15T02:39:06;20.02;;;15.82;;
49458;SDS011;35354;51.296;16.924;2023-04-15T02:41:32;20.33;;;16.70;;
49458;SDS011;35354;51.296;16.924;2023-04-15T02:43:57;20.58;;;15.75;;
49458;SDS011;35354;51.296;16.924;2023-04-15T02:46:22;20.10;;;14.07;;
49458;SDS011;35354;51.296;16.924;2023-04-15T02:48:48;22.27;;;17.02;;
49458;SDS011;35354;51.296;16.924;2023-04-15T02:51:17;23.88;;;17.73;;
49458;SDS011;35354;51.296;16.924;2023-04-15T02:53:44;22.67;;;18.73;;
49458;SDS011;35354;51.296;16.924;2023-04-15T02:56:10;21.08;;;15.57;;
49458;SDS011;35354;51.296;16.924;2023-04-15T02:58:36;22.60;;;18.48;;
49458;SDS011;35354;51.296;16.924;2023-04-15T03:01:02;24.52;;;18.48;;
49458;SDS011;35354;51.296;16.924;2023-04-15T03:03:28;25.80;;;18.05;;
49458;SDS011;35354;51.296;16.924;2023-04-15T03:05:53;23.73;;;18.20;;
49458;SDS011;35354;51.296;16.924;2023-04-15T03:08:18;29.52;;;20.85;;
49458;SDS011;35354;51.296;16.924;2023-04-15T03:10:45;26.42;;;17.98;;
49458;SDS011;35354;51.296;16.924;2023-04-15T03:13:11;26.17;;;19.15;;
49458;SDS011;35354;51.296;16.924;2023-04-15T03:15:36;28.77;;;22.15;;
49458;SDS011;35354;51.296;16.924;2023-04-15T03:18:02;31.67;;;22.70;;
49458;SDS011;35354;51.296;16.924;2023-04-15T03:20:27;29.13;;;21.58;;
49458;SDS011;35354;51.296;16.924;2023-04-15T03:22:53;27.17;;;20.95;;
49458;SDS011;35354;51.296;16.924;2023-04-15T03:25:18;19.90;;;16.50;;
49458;SDS011;35354;51.296;16.924;2023-04-15T03:27:43;24.23;;;18.25;;
49458;SDS011;35354;51.296;16.924;2023-04-15T03:30:09;23.52;;;17.15;;
49458;SDS011;35354;51.296;16.924;2023-04-15T03:32:35;22.13;;;18.48;;
49458;SDS011;35354;51.296;16.924;2023-04-15T03:35:00;24.85;;;17.77;;
49458;SDS011;35354;51.296;16.924;2023-04-15T03:37:25;24.52;;;18.10;;
49458;SDS011;35354;51.296;16.924;2023-04-15T03:39:51;24.88;;;17.88;;
49458;SDS011;35354;51.296;16.924;2023-04-15T03:42:16;26.27;;;17.48;;
49458;SDS011;35354;51.296;16.924;2023-04-15T03:44:42;24.38;;;18.27;;
49458;SDS011;35354;51.296;16.924;2023-04-15T03:47:07;21.40;;;17.40;;
49458;SDS011;35354;51.296;16.924;2023-04-15T03:49:32;23.95;;;17.63;;
49458;SDS011;35354;51.296;16.924;2023-04-15T03:51:58;21.08;;;17.77;;
49458;SDS011;35354;51.296;16.924;2023-04-15T03:54:23;23.27;;;17.58;;
49458;SDS011;35354;51.296;16.924;2023-04-15T03:56:49;22.70;;;16.55;;
49458;SDS011;35354;51.296;16.924;2023-04-15T03:59:15;23.08;;;18.42;;
49458;SDS011;35354;51.296;16.924;2023-04-15T04:01:40;23.52;;;18.05;;
49458;SDS011;35354;51.296;16.924;2023-04-15T04:04:05;21.45;;;17.15;;
49458;SDS011;35354;51.296;16.924;2023-04-15T04:06:31;26.70;;;17.67;;
49458;SDS011;35354;51.296;16.924;2023-04-15T04:08:56;22.48;;;17.83;;
49458;SDS011;35354;51.296;16.924;2023-04-15T04:11:22;25.00;;;19.83;;
49458;SDS011;35354;51.296;16.924;2023-04-15T04:13:47;26.38;;;18.67;;
49458;SDS011;35354;51.296;16.924;2023-04-15T04:16:12;26.23;;;20.52;;
49458;SDS011;35354;51.296;16.924;2023-04-15T04:18:38;30.75;;;19.77;;
49458;SDS011;35354;51.296;16.924;2023-04-15T04:21:03;26.60;;;20.30;;
49458;SDS011;35354;51.296;16.924;2023-04-15T04:23:29;28.92;;;21.05;;
49458;SDS011;35354;51.296;16.924;2023-04-15T04:25:54;28.63;;;20.17;;
49458;SDS011;35354;51.296;16.924;2023-04-15T04:28:20;27.75;;;20.30;;
49458;SDS011;35354;51.296;16.924;2023-04-15T04:30:45;26.60;;;20.05;;
49458;SDS011;35354;51.296;16.924;2023-04-15T04:33:11;30.90;;;22.63;;
49458;SDS011;35354;51.296;16.924;2023-04-15T04:35:37;25.52;;;20.83;;
49458;SDS011;35354;51.296;16.924;2023-04-15T04:38:02;26.70;;;20.60;;
49458;SDS011;35354;51.296;16.924;2023-04-15T04:40:28;32.42;;;19.05;;
49458;SDS011;35354;51.296;16.924;2023-04-15T04:42:54;28.48;;;20.80;;
49458;SDS011;35354;51.296;16.924;2023-04-15T04:45:20;24.52;;;18.35;;
49458;SDS011;35354;51.296;16.924;2023-04-15T04:47:45;27.58;;;19.73;;
49458;SDS011;35354;51.296;16.924;2023-04-15T04:50:11;23.67;;;18.02;;
49458;SDS011;35354;51.296;16.924;2023-04-15T04:52:37;25.40;;;18.55;;
49458;SDS011;35354;51.296;16.924;2023-04-15T04:55:02;22.40;;;18.25;;
49458;SDS011;35354;51.296;16.924;2023-04-15T04:57:28;22.60;;;17.00;;
49458;SDS011;35354;51.296;16.924;2023-04-15T04:59:53;21.15;;;16.23;;
49458;SDS011;35354;51.296;16.924;2023-04-15T05:02:18;20.23;;;16.02;;
49458;SDS011;35354;51.296;16.924;2023-04-15T05:04:44;21.90;;;15.70;;
49458;SDS011;35354;51.296;16.924;2023-04-15T05:07:09;20.13;;;14.75;;
49458;SDS011;35354;51.296;16.924;2023-04-15T05:09:35;18.95;;;14.35;;
49458;SDS011;35354;51.296;16.924;2023-04-15T05:12:01;18.42;;;14.43;;
49458;SDS011;35354;51.296;16.924;2023-04-15T05:14:28;13.82;;;11.43;;
49458;SDS011;35354;51.296;16.924;2023-04-15T05:16:53;11.40;;;8.15;;
49458;SDS011;35354;51.296;16.924;2023-04-15T05:19:18;11.65;;;7.90;;
49458;SDS011;35354;51.296;16.924;2023-04-15T05:21:44;10.60;;;7.10;;
49458;SDS011;35354;51.296;16.924;2023-04-15T05:24:09;10.65;;;6.80;;
49458;SDS011;35354;51.296;16.924;2023-04-15T05:26:34;8.70;;;6.90;;
49458;SDS011;35354;51.296;16.924;2023-04-15T05:29:00;8.27;;;6.05;;
49458;SDS011;35354;51.296;16.924;2023-04-15T05:31:25;6.22;;;5.60;;
49458;SDS011;35354;51.296;16.924;2023-04-15T05:33:50;6.03;;;5.28;;
49458;SDS011;35354;51.296;16.924;2023-04-15T05:36:16;4.05;;;3.65;;
49458;SDS011;35354;51.296;16.924;2023-04-15T05:38:41;4.63;;;3.78;;
49458;SDS011;35354;51.296;16.924;2023-04-15T05:41:06;3.97;;;3.58;;
49458;SDS011;35354;51.296;16.924;2023-04-15T05:43:33;3.67;;;3.38;;
49458;SDS011;35354;51.296;16.924;2023-04-15T05:45:58;4.53;;;3.15;;
49458;SDS011;35354;51.296;16.924;2023-04-15T05:48:23;3.20;;;2.90;;
49458;SDS011;35354;51.296;16.924;2023-04-15T05:50:48;3.40;;;3.10;;
49458;SDS011;35354;51.296;16.924;2023-04-15T05:53:14;3.75;;;2.95;;
49458;SDS011;35354;51.296;16.924;2023-04-15T05:55:39;3.70;;;3.28;;
49458;SDS011;35354;51.296;16.924;2023-04-15T05:58:05;4.05;;;3.65;;
49458;SDS011;35354;51.296;16.924;2023-04-15T06:00:30;3.25;;;2.95;;
49458;SDS011;35354;51.296;16.924;2023-04-15T06:02:56;4.57;;;3.58;;
49458;SDS011;35354;51.296;16.924;2023-04-15T06:05:22;4.32;;;3.35;;
49458;SDS011;35354;51.296;16.924;2023-04-15T06:07:48;2.88;;;2.67;;
49458;SDS011;35354;51.296;16.924;2023-04-15T06:10:14;2.72;;;2.40;;
49458;SDS011;35354;51.296;16.924;2023-04-15T06:12:39;2.47;;;2.28;;
49458;SDS011;35354;51.296;16.924;2023-04-15T06:15:05;3.00;;;2.60;;
49458;SDS011;35354;51.296;16.924;2023-04-15T06:17:31;2.38;;;2.17;;
49458;SDS011;35354;51.296;16.924;2023-04-15T06:19:56;2.30;;;2.10;;
49458;SDS011;35354;51.296;16.924;2023-04-15T06:22:22;4.47;;;2.17;;
49458;SDS011;35354;51.296;16.924;2023-04-15T06:24:48;2.72;;;2.40;;
49458;SDS011;35354;51.296;16.924;2023-04-15T06:27:17;2.08;;;1.92;;
49458;SDS011;35354;51.296;16.924;2023-04-15T06:29:42;1.77;;;1.67;;
49458;SDS011;35354;51.296;16.924;2023-04-15T06:32:08;2.10;;;1.90;;
49458;SDS011;35354;51.296;16.924;2023-04-15T06:34:34;3.63;;;3.33;;
49458;SDS011;35354;51.296;16.924;2023-04-15T06:36:59;2.35;;;2.15;;
49458;SDS011;35354;51.296;16.924;2023-04-15T06:39:25;2.55;;;2.35;;
49458;SDS011;35354;51.296;16.924;2023-04-15T06:41:51;1.98;;;1.88;;
49458;SDS011;35354;51.296;16.924;2023-04-15T06:44:16;1.60;;;1.50;;
49458;SDS011;35354;51.296;16.924;2023-04-15T06:46:42;1.60;;;1.50;;
49458;SDS011;35354;51.296;16.924;2023-04-15T06:49:08;1.95;;;1.80;;
49458;SDS011;35354;51.296;16.924;2023-04-15T06:51:34;1.95;;;1.80;;
49458;SDS011;35354;51.296;16.924;2023-04-15T06:54:00;2.72;;;1.70;;
49458;SDS011;35354;51.296;16.924;2023-04-15T06:56:26;2.53;;;2.15;;
49458;SDS011;35354;51.296;16.924;2023-04-15T06:58:52;2.22;;;1.80;;
49458;SDS011;35354;51.296;16.924;2023-04-15T07:01:17;3.05;;;1.70;;
49458;SDS011;35354;51.296;16.924;2023-04-15T07:03:42;2.10;;;1.70;;
49458;SDS011;35354;51.296;16.924;2023-04-15T07:06:08;1.67;;;1.58;;
49458;SDS011;35354;51.296;16.924;2023-04-15T07:08:34;3.53;;;2.13;;
49458;SDS011;35354;51.296;16.924;2023-04-15T07:10:59;2.45;;;2.10;;
49458;SDS011;35354;51.296;16.924;2023-04-15T07:13:25;3.50;;;2.28;;
49458;SDS011;35354;51.296;16.924;2023-04-15T07:15:51;2.85;;;2.35;;
49458;SDS011;35354;51.296;16.924;2023-04-15T07:18:16;2.13;;;1.90;;
49458;SDS011;35354;51.296;16.924;2023-04-15T07:20:41;2.45;;;1.92;;
49458;SDS011;35354;51.296;16.924;2023-04-15T07:23:07;2.20;;;1.80;;
49458;SDS011;35354;51.296;16.924;2023-04-15T07:25:32;2.22;;;1.73;;
49458;SDS011;35354;51.296;16.924;2023-04-15T07:27:58;1.42;;;1.33;;
49458;SDS011;35354;51.296;16.924;2023-04-15T07:30:23;1.73;;;1.40;;
49458;SDS011;35354;51.296;16.924;2023-04-15T07:32:48;1.23;;;1.10;;
49458;SDS011;35354;51.296;16.924;2023-04-15T07:35:14;3.20;;;3.00;;
49458;SDS011;35354;51.296;16.924;2023-04-15T07:37:39;3.72;;;3.42;;
49458;SDS011;35354;51.296;16.924;2023-04-15T07:40:05;4.97;;;4.53;;
49458;SDS011;35354;51.296;16.924;2023-04-15T07:42:32;7.40;;;6.75;;
49458;SDS011;35354;51.296;16.924;2023-04-15T07:44:58;4.30;;;3.30;;
49458;SDS011;35354;51.296;16.924;2023-04-15T07:47:23;2.38;;;2.17;;
49458;SDS011;35354;51.296;16.924;2023-04-15T07:49:49;5.35;;;1.60;;
49458;SDS011;35354;51.296;16.924;2023-04-15T07:52:15;1.40;;;1.20;;
49458;SDS011;35354;51.296;16.924;2023-04-15T07:54:40;1.20;;;1.10;;
49458;SDS011;35354;51.296;16.924;2023-04-15T07:57:06;1.58;;;1.02;;
49458;SDS011;35354;51.296;16.924;2023-04-15T07:59:31;1.45;;;1.35;;
49458;SDS011;35354;51.296;16.924;2023-04-15T08:01:57;1.30;;;1.20;;
49458;SDS011;35354;51.296;16.924;2023-04-15T08:04:23;2.75;;;1.30;;
49458;SDS011;35354;51.296;16.924;2023-04-15T08:06:48;1.40;;;1.30;;
49458;SDS011;35354;51.296;16.924;2023-04-15T08:09:14;1.08;;;1.02;;
49458;SDS011;35354;51.296;16.924;2023-04-15T08:11:40;1.45;;;1.35;;
49458;SDS011;35354;51.296;16.924;2023-04-15T08:14:05;2.40;;;1.90;;
49458;SDS011;35354;51.296;16.924;2023-04-15T08:16:30;2.05;;;1.88;;
49458;SDS011;35354;51.296;16.924;2023-04-15T08:18:56;1.25;;;1.00;;
49458;SDS011;35354;51.296;16.924;2023-04-15T08:21:22;1.50;;;1.40;;
49458;SDS011;35354;51.296;16.924;2023-04-15T08:23:48;2.67;;;1.80;;
49458;SDS011;35354;51.296;16.924;2023-04-15T08:26:15;4.32;;;2.58;;
49458;SDS011;35354;51.296;16.924;2023-04-15T08:28:41;3.30;;;2.22;;
49458;SDS011;35354;51.296;16.924;2023-04-15T08:31:08;1.38;;;1.27;;
49458;SDS011;35354;51.296;16.924;2023-04-15T08:33:34;3.17;;;1.80;;
49458;SDS011;35354;51.296;16.924;2023-04-15T08:35:59;2.20;;;2.00;;
49458;SDS011;35354;51.296;16.924;2023-04-15T08:38:25;2.70;;;2.38;;
49458;SDS011;35354;51.296;16.924;2023-04-15T08:40:50;2.60;;;1.83;;
49458;SDS011;35354;51.296;16.924;2023-04-15T08:43:23;2.38;;;1.75;;
49458;SDS011;35354;51.296;16.924;2023-04-15T08:45:57;2.00;;;1.70;;
49458;SDS011;35354;51.296;16.924;2023-04-15T08:48:26;2.35;;;1.55;;
49458;SDS011;35354;51.296;16.924;2023-04-15T08:50:53;2.92;;;1.70;;
49458;SDS011;35354;51.296;16.924;2023-04-15T08:53:19;2.95;;;1.30;;
49458;SDS011;35354;51.296;16.924;2023-04-15T08:55:45;1.75;;;1.55;;
49458;SDS011;35354;51.296;16.924;2023-04-15T08:58:15;1.77;;;1.55;;
49458;SDS011;35354;51.296;16.924;2023-04-15T09:00:40;1.83;;;1.50;;
49458;SDS011;35354;51.296;16.924;2023-04-15T09:03:06;1.65;;;1.55;;
49458;SDS011;35354;51.296;16.924;2023-04-15T09:05:33;1.83;;;1.38;;
49458;SDS011;35354;51.296;16.924;2023-04-15T09:07:59;2.00;;;1.80;;
49458;SDS011;35354;51.296;16.924;2023-04-15T09:10:25;1.20;;;1.10;;
49458;SDS011;35354;51.296;16.924;2023-04-15T09:12:51;2.83;;;1.40;;
49458;SDS011;35354;51.296;16.924;2023-04-15T09:15:17;2.47;;;1.80;;
49458;SDS011;35354;51.296;16.924;2023-04-15T09:17:43;0.80;;;0.80;;
49458;SDS011;35354;51.296;16.924;2023-04-15T09:20:10;1.27;;;1.17;;
49458;SDS011;35354;51.296;16.924;2023-04-15T09:22:40;2.90;;;1.90;;
49458;SDS011;35354;51.296;16.924;2023-04-15T09:27:50;16.25;;;14.75;;
49458;SDS011;35354;51.296;16.924;2023-04-15T09:30:17;3.05;;;2.75;;
49458;SDS011;35354;51.296;16.924;2023-04-15T09:32:52;2.40;;;2.20;;
49458;SDS011;35354;51.296;16.924;2023-04-15T09:35:23;1.33;;;1.23;;
49458;SDS011;35354;51.296;16.924;2023-04-15T09:37:49;2.05;;;1.50;;
49458;SDS011;35354;51.296;16.924;2023-04-15T09:42:56;1.50;;;1.40;;
49458;SDS011;35354;51.296;16.924;2023-04-15T09:45:22;1.65;;;1.42;;
49458;SDS011;35354;51.296;16.924;2023-04-15T09:47:48;1.60;;;1.50;;
49458;SDS011;35354;51.296;16.924;2023-04-15T09:50:15;1.48;;;1.20;;
49458;SDS011;35354;51.296;16.924;2023-04-15T09:52:41;1.20;;;1.10;;
49458;SDS011;35354;51.296;16.924;2023-04-15T09:55:07;1.02;;;1.00;;
49458;SDS011;35354;51.296;16.924;2023-04-15T09:57:34;1.85;;;1.40;;
49458;SDS011;35354;51.296;16.924;2023-04-15T10:00:01;1.55;;;1.42;;
49458;SDS011;35354;51.296;16.924;2023-04-15T10:02:32;1.48;;;1.38;;
49458;SDS011;35354;51.296;16.924;2023-04-15T10:04:58;1.95;;;1.45;;
49458;SDS011;35354;51.296;16.924;2023-04-15T10:07:24;1.15;;;1.05;;
49458;SDS011;35354;51.296;16.924;2023-04-15T10:09:50;1.48;;;1.20;;
49458;SDS011;35354;51.296;16.924;2023-04-15T10:12:16;1.30;;;1.20;;
49458;SDS011;35354;51.296;16.924;2023-04-15T10:14:42;2.75;;;1.08;;
49458;SDS011;35354;51.296;16.924;2023-04-15T10:17:09;1.50;;;1.40;;
49458;SDS011;35354;51.296;16.924;2023-04-15T10:19:38;2.05;;;1.70;;
49458;SDS011;35354;51.296;16.924;2023-04-15T10:22:05;1.23;;;1.13;;
49458;SDS011;35354;51.296;16.924;2023-04-15T10:24:31;6.53;;;5.47;;
49458;SDS011;35354;51.296;16.924;2023-04-15T10:26:57;7.97;;;7.18;;
49458;SDS011;35354;51.296;16.924;2023-04-15T10:29:24;3.28;;;2.72;;
49458;SDS011;35354;51.296;16.924;2023-04-15T10:31:55;2.20;;;2.00;;
49458;SDS011;35354;51.296;16.924;2023-04-15T10:34:23;2.10;;;1.85;;
49458;SDS011;35354;51.296;16.924;2023-04-15T10:36:49;1.00;;;0.90;;
49458;SDS011;35354;51.296;16.924;2023-04-15T10:42:08;1.85;;;1.60;;
49458;SDS011;35354;51.296;16.924;2023-04-15T10:44:51;2.83;;;2.55;;
49458;SDS011;35354;51.296;16.924;2023-04-15T10:47:20;14.93;;;12.65;;
49458;SDS011;35354;51.296;16.924;2023-04-15T10:52:16;5.03;;;4.63;;
49458;SDS011;35354;51.296;16.924;2023-04-15T10:54:49;2.92;;;2.70;;
49458;SDS011;35354;51.296;16.924;2023-04-15T10:57:27;1.42;;;1.33;;
49458;SDS011;35354;51.296;16.924;2023-04-15T11:00:01;1.80;;;1.50;;
49458;SDS011;35354;51.296;16.924;2023-04-15T11:02:51;9.93;;;6.28;;
49458;SDS011;35354;51.296;16.924;2023-04-15T11:12:38;6.53;;;3.67;;
49458;SDS011;35354;51.296;16.924;2023-04-15T11:17:51;1.40;;;1.30;;
49458;SDS011;35354;51.296;16.924;2023-04-15T11:20:17;1.45;;;1.35;;
49458;SDS011;35354;51.296;16.924;2023-04-15T11:23:00;1.05;;;1.00;;
49458;SDS011;35354;51.296;16.924;2023-04-15T11:25:32;2.50;;;1.40;;
49458;SDS011;35354;51.296;16.924;2023-04-15T11:28:00;1.00;;;1.00;;
49458;SDS011;35354;51.296;16.924;2023-04-15T11:30:31;1.90;;;1.80;;
49458;SDS011;35354;51.296;16.924;2023-04-15T11:33:01;1.33;;;1.30;;
49458;SDS011;35354;51.296;16.924;2023-04-15T11:35:31;5.90;;;2.20;;
49458;SDS011;35354;51.296;16.924;2023-04-15T11:37:56;2.20;;;2.00;;
49458;SDS011;35354;51.296;16.924;2023-04-15T11:40:23;1.48;;;1.38;;
49458;SDS011;35354;51.296;16.924;2023-04-15T11:43:03;2.08;;;1.80;;
49458;SDS011;35354;51.296;16.924;2023-04-15T11:45:48;1.52;;;1.40;;
49458;SDS011;35354;51.296;16.924;2023-04-15T11:48:15;2.22;;;1.85;;
49458;SDS011;35354;51.296;16.924;2023-04-15T11:50:41;2.13;;;1.70;;
49458;SDS011;35354;51.296;16.924;2023-04-15T11:53:07;1.40;;;1.30;;
49458;SDS011;35354;51.296;16.924;2023-04-15T11:55:44;1.58;;;1.48;;
49458;SDS011;35354;51.296;16.924;2023-04-15T11:58:12;1.63;;;1.52;;
49458;SDS011;35354;51.296;16.924;2023-04-15T12:03:28;2.40;;;2.00;;
49458;SDS011;35354;51.296;16.924;2023-04-15T12:13:52;1.33;;;1.23;;
49458;SDS011;35354;51.296;16.924;2023-04-15T12:16:19;1.73;;;1.50;;
49458;SDS011;35354;51.296;16.924;2023-04-15T12:18:45;2.55;;;2.35;;
49458;SDS011;35354;51.296;16.924;2023-04-15T12:21:11;3.65;;;3.13;;
49458;SDS011;35354;51.296;16.924;2023-04-15T12:23:38;4.72;;;3.65;;
49458;SDS011;35354;51.296;16.924;2023-04-15T12:26:11;38.13;;;25.20;;
49458;SDS011;35354;51.296;16.924;2023-04-15T12:28:37;17.45;;;9.43;;
49458;SDS011;35354;51.296;16.924;2023-04-15T12:31:06;5.10;;;3.53;;
49458;SDS011;35354;51.296;16.924;2023-04-15T12:33:35;4.15;;;2.80;;
49458;SDS011;35354;51.296;16.924;2023-04-15T12:36:01;4.63;;;3.47;;
49458;SDS011;35354;51.296;16.924;2023-04-15T12:38:27;22.90;;;15.95;;
49458;SDS011;35354;51.296;16.924;2023-04-15T12:40:52;33.83;;;24.33;;
49458;SDS011;35354;51.296;16.924;2023-04-15T12:43:18;6.93;;;5.65;;
49458;SDS011;35354;51.296;16.924;2023-04-15T12:45:43;8.15;;;5.93;;
49458;SDS011;35354;51.296;16.924;2023-04-15T12:48:09;5.00;;;3.80;;
49458;SDS011;35354;51.296;16.924;2023-04-15T12:50:34;5.55;;;2.95;;
49458;SDS011;35354;51.296;16.924;2023-04-15T12:53:00;2.40;;;1.55;;
49458;SDS011;35354;51.296;16.924;2023-04-15T12:55:25;1.73;;;1.52;;
49458;SDS011;35354;51.296;16.924;2023-04-15T12:57:51;1.45;;;1.17;;
49458;SDS011;35354;51.296;16.924;2023-04-15T13:00:16;1.83;;;1.33;;
49458;SDS011;35354;51.296;16.924;2023-04-15T13:02:42;2.15;;;1.70;;
49458;SDS011;35354;51.296;16.924;2023-04-15T13:05:08;2.92;;;1.50;;
49458;SDS011;35354;51.296;16.924;2023-04-15T13:07:34;4.40;;;4.07;;
49458;SDS011;35354;51.296;16.924;2023-04-15T13:09:59;8.50;;;4.85;;
49458;SDS011;35354;51.296;16.924;2023-04-15T13:12:25;5.25;;;2.47;;
49458;SDS011;35354;51.296;16.924;2023-04-15T13:14:51;2.15;;;1.35;;
49458;SDS011;35354;51.296;16.924;2023-04-15T13:17:16;1.90;;;1.20;;
49458;SDS011;35354;51.296;16.924;2023-04-15T13:19:44;2.25;;;2.05;;
49458;SDS011;35354;51.296;16.924;2023-04-15T13:22:10;1.70;;;1.60;;
49458;SDS011;35354;51.296;16.924;2023-04-15T13:24:36;3.00;;;2.60;;
49458;SDS011;35354;51.296;16.924;2023-04-15T13:27:03;3.83;;;3.42;;
49458;SDS011;35354;51.296;16.924;2023-04-15T13:29:28;5.57;;;5.10;;
49458;SDS011;35354;51.296;16.924;2023-04-15T13:31:54;3.92;;;3.63;;
49458;SDS011;35354;51.296;16.924;2023-04-15T13:34:19;3.10;;;2.67;;
49458;SDS011;35354;51.296;16.924;2023-04-15T13:36:45;2.22;;;2.03;;
49458;SDS011;35354;51.296;16.924;2023-04-15T13:39:11;2.28;;;2.00;;
49458;SDS011;35354;51.296;16.924;2023-04-15T13:41:36;1.58;;;1.48;;
49458;SDS011;35354;51.296;16.924;2023-04-15T13:44:02;1.30;;;1.20;;
49458;SDS011;35354;51.296;16.924;2023-04-15T13:46:27;1.35;;;1.25;;
49458;SDS011;35354;51.296;16.924;2023-04-15T13:48:52;1.20;;;1.10;;
49458;SDS011;35354;51.296;16.924;2023-04-15T13:51:18;1.90;;;1.40;;
49458;SDS011;35354;51.296;16.924;2023-04-15T13:53:43;1.90;;;1.70;;
49458;SDS011;35354;51.296;16.924;2023-04-15T13:56:08;2.10;;;1.75;;
49458;SDS011;35354;51.296;16.924;2023-04-15T13:58:35;2.58;;;1.92;;
49458;SDS011;35354;51.296;16.924;2023-04-15T14:01:01;1.92;;;1.75;;
49458;SDS011;35354;51.296;16.924;2023-04-15T14:03:27;1.40;;;1.30;;
49458;SDS011;35354;51.296;16.924;2023-04-15T14:05:52;1.58;;;1.48;;
49458;SDS011;35354;51.296;16.924;2023-04-15T14:08:20;2.17;;;1.98;;
49458;SDS011;35354;51.296;16.924;2023-04-15T14:10:46;2.47;;;2.20;;
49458;SDS011;35354;51.296;16.924;2023-04-15T14:13:13;1.35;;;1.25;;
49458;SDS011;35354;51.296;16.924;2023-04-15T14:15:39;1.55;;;1.45;;
49458;SDS011;35354;51.296;16.924;2023-04-15T14:18:05;1.55;;;1.30;;
49458;SDS011;35354;51.296;16.924;2023-04-15T14:20:31;1.73;;;1.60;;
49458;SDS011;35354;51.296;16.924;2023-04-15T14:22:56;1.38;;;1.27;;
49458;SDS011;35354;51.296;16.924;2023-04-15T14:25:21;1.23;;;1.13;;
49458;SDS011;35354;51.296;16.924;2023-04-15T14:27:47;1.33;;;1.23;;
49458;SDS011;35354;51.296;16.924;2023-04-15T14:30:12;2.55;;;2.35;;
49458;SDS011;35354;51.296;16.924;2023-04-15T14:32:38;2.45;;;1.80;;
49458;SDS011;35354;51.296;16.924;2023-04-15T14:35:03;2.28;;;1.92;;
49458;SDS011;35354;51.296;16.924;2023-04-15T14:37:29;2.53;;;2.17;;
49458;SDS011;35354;51.296;16.924;2023-04-15T14:39:54;1.60;;;1.50;;
49458;SDS011;35354;51.296;16.924;2023-04-15T14:42:20;1.98;;;1.52;;
49458;SDS011;35354;51.296;16.924;2023-04-15T14:44:45;2.65;;;2.20;;
49458;SDS011;35354;51.296;16.924;2023-04-15T14:47:11;2.97;;;1.70;;
49458;SDS011;35354;51.296;16.924;2023-04-15T14:49:37;1.83;;;1.60;;
49458;SDS011;35354;51.296;16.924;2023-04-15T14:52:02;1.90;;;1.58;;